createdAt,value
2023-02-09T00:04:18.796Z,100072.09
2023-02-09T00:09:22.875Z,100066.06
2023-02-09T00:14:25.847Z,100060.88
2023-02-09T00:19:29.702Z,100053.13
2023-02-09T00:24:34.903Z,100039.25
2023-02-09T00:29:37.600Z,100043.63
2023-02-09T00:34:40.381Z,100043.63
2023-02-09T00:39:44.518Z,100046.31
2023-02-09T00:44:47.208Z,100042.03
2023-02-09T00:49:50.913Z,100042.97
2023-02-09T00:54:55.084Z,100038.63
2023-02-09T00:59:57.807Z,100029.97
2023-02-09T01:05:00.773Z,100029.03
2023-02-09T01:10:05.653Z,100012.53
2023-02-09T01:15:11.134Z,100016.06
2023-02-09T01:20:14.913Z,100006.53
2023-02-09T01:25:19.220Z,100001.38
2023-02-09T01:30:22.031Z,100004.03
2023-02-09T01:35:24.799Z,99996.22
2023-02-09T01:40:28.953Z,99991.00
2023-02-09T01:45:36.225Z,99996.19
2023-02-09T01:50:42.134Z,99996.22
2023-02-09T01:55:51.494Z,99992.78
2023-02-09T02:00:54.629Z,99981.53
2023-02-09T02:06:01.258Z,99971.97
2023-02-09T02:11:05.642Z,99974.63
2023-02-09T02:16:20.795Z,99969.44
2023-02-09T02:22:15.193Z,99981.53
2023-02-09T02:27:31.505Z,99978.97
2023-02-09T02:32:44.152Z,99975.53
2023-02-09T02:37:57.066Z,99975.53
2023-02-09T02:43:07.132Z,99967.78
2023-02-09T02:48:21.782Z,99974.75
2023-02-09T02:53:29.172Z,99966.94
2023-02-09T02:58:34.298Z,99955.66
2023-02-09T03:03:41.403Z,99966.09
2023-02-09T03:08:48.922Z,99965.28
2023-02-09T03:14:06.149Z,99960.97
2023-02-09T03:19:20.393Z,99965.31
2023-02-09T03:24:35.205Z,99970.50
2023-02-09T03:29:40.084Z,99954.94
2023-02-09T03:34:45.675Z,99960.16
2023-02-09T03:39:48.430Z,99962.78
2023-02-09T03:44:51.139Z,99968.03
2023-02-09T03:49:55.287Z,99956.75
2023-02-09T03:54:58.031Z,99965.44
2023-02-09T04:00:01.719Z,99947.25
2023-02-09T04:05:16.030Z,99960.25
2023-02-09T04:10:19.158Z,99948.97
2023-02-09T04:15:21.866Z,99953.34
2023-02-09T04:20:25.913Z,99962.88
2023-02-09T04:25:28.781Z,99959.41
2023-02-09T04:30:31.592Z,99964.59
2023-02-09T04:35:35.760Z,99970.66
2023-02-09T04:40:38.584Z,99963.72
2023-02-09T04:45:42.197Z,99965.47
2023-02-09T04:50:47.157Z,99963.75
2023-02-09T04:55:52.516Z,99966.31
2023-02-09T05:00:56.250Z,99967.19
2023-02-09T05:06:02.892Z,99962.84
2023-02-09T05:11:05.905Z,99969.78
2023-02-09T05:16:10.747Z,99968.91
2023-02-09T05:21:15.308Z,99977.53
2023-02-09T05:26:18.052Z,99974.94
2023-02-09T05:31:20.947Z,99964.56
2023-02-09T05:36:25.125Z,99973.22
2023-02-09T05:41:45.421Z,99974.09
2023-02-09T05:46:48.144Z,99976.69
2023-02-09T05:51:52.317Z,99970.63
2023-02-09T05:56:55.165Z,99971.50
2023-02-09T06:01:58.324Z,99970.59
2023-02-09T06:07:02.515Z,99971.44
2023-02-09T06:12:05.748Z,99964.50
2023-02-09T06:17:08.563Z,99972.25
2023-02-09T06:22:12.705Z,99976.56
2023-02-09T06:27:15.426Z,99980.91
2023-02-09T06:32:18.270Z,99981.75
2023-02-09T06:37:22.530Z,99988.69
2023-02-09T06:42:25.366Z,99990.38
2023-02-09T06:47:28.156Z,99992.13
2023-02-09T06:52:32.397Z,99990.44
2023-02-09T06:57:35.483Z,99986.16
2023-02-09T07:02:38.239Z,99995.63
2023-02-09T07:07:43.030Z,99991.31
2023-02-09T07:12:46.243Z,99992.25
2023-02-09T07:17:49.017Z,99987.94
2023-02-09T07:22:53.099Z,99975.88
2023-02-09T07:27:55.926Z,99974.13
2023-02-09T07:32:58.743Z,99988.84
2023-02-09T07:38:02.868Z,99989.69
2023-02-09T07:43:06.159Z,99988.78
2023-02-09T07:48:10.978Z,99993.03
2023-02-09T07:53:15.180Z,99987.66
2023-02-09T07:58:19.905Z,99991.06
2023-02-09T08:03:25.257Z,99984.84
2023-02-09T08:08:30.248Z,99981.25
2023-02-09T08:13:37.884Z,99983.66
2023-02-09T08:18:43.497Z,99965.31
2023-02-09T08:23:52.554Z,99962.50
2023-02-09T08:28:55.837Z,99987.59
2023-02-09T08:33:58.745Z,99991.63
2023-02-09T08:39:03.208Z,100001.13
2023-02-09T08:44:06.452Z,99999.28
2023-02-09T08:49:09.268Z,99995.63
2023-02-09T08:54:13.404Z,99997.00
2023-02-09T08:59:18.430Z,99995.97
2023-02-09T09:04:22.669Z,100001.28
2023-02-09T09:09:26.826Z,99999.94
2023-02-09T09:14:30.067Z,99997.03
2023-02-09T09:19:32.880Z,99991.78
2023-02-09T09:24:40.634Z,99992.94
2023-02-09T09:29:44.037Z,99994.31
2023-02-09T09:34:46.828Z,99997.94
2023-02-09T09:39:51.435Z,100005.69
2023-02-09T09:44:55.851Z,100007.56
2023-02-09T09:49:58.812Z,100003.47
2023-02-09T09:55:06.691Z,100000.56
2023-02-09T10:00:19.109Z,99993.84
2023-02-09T10:05:24.940Z,99984.03
2023-02-09T10:10:38.976Z,100004.69
2023-02-09T10:15:41.831Z,100001.63
2023-02-09T10:20:48.660Z,100005.97
2023-02-09T10:26:03.833Z,100019.09
2023-02-09T10:31:16.676Z,100027.94
2023-02-09T10:36:32.531Z,100029.22
2023-02-09T10:41:37.795Z,100040.38
2023-02-09T10:46:41.727Z,100019.63
2023-02-09T10:51:44.680Z,100017.81
2023-02-09T10:56:50.227Z,100012.16
2023-02-09T11:01:56.920Z,100009.50
2023-02-09T11:07:01.913Z,100003.75
2023-02-09T11:12:10.978Z,100007.84
2023-02-09T11:17:17.545Z,100006.25
2023-02-09T11:22:29.422Z,100003.03
2023-02-09T11:28:01.377Z,100009.34
2023-02-09T11:33:16.284Z,99999.38
2023-02-09T11:38:24.398Z,99980.13
2023-02-09T11:43:33.564Z,99971.13
2023-02-09T11:48:39.964Z,99988.78
2023-02-09T11:53:49.781Z,99972.84
2023-02-09T11:59:01.300Z,99978.06
2023-02-09T12:04:11.710Z,99971.66
2023-02-09T12:09:30.353Z,99976.50
2023-02-09T12:14:49.092Z,99978.75
2023-02-09T12:19:58.682Z,99970.47
2023-02-09T12:25:20.256Z,99964.56
2023-02-09T12:31:01.311Z,99957.97
2023-02-09T12:36:29.762Z,99951.47
2023-02-09T12:42:11.081Z,99955.03
2023-02-09T12:47:46.240Z,99939.44
2023-02-09T12:53:22.510Z,99930.25
2023-02-09T12:58:54.937Z,99928.78
2023-02-09T13:04:02.652Z,99893.94
2023-02-09T13:09:10.861Z,99908.75
2023-02-09T13:14:17.416Z,99904.44
2023-02-09T13:19:52.738Z,99916.63
2023-02-09T13:25:00.568Z,99894.63
2023-02-09T13:30:03.395Z,99911.16
2023-02-09T13:35:22.305Z,99915.59
2023-02-09T13:40:27.115Z,99921.81
2023-02-09T13:45:31.060Z,99936.75
2023-02-09T13:50:35.315Z,99929.78
2023-02-09T13:55:40.745Z,99942.19
2023-02-09T14:00:46.331Z,99934.91
2023-02-09T14:05:56.667Z,99927.13
2023-02-09T14:11:06.840Z,99929.16
2023-02-09T14:16:10.507Z,99938.34
2023-02-09T14:21:31.079Z,99936.50
2023-02-09T14:26:38.200Z,99920.22
2023-02-09T14:31:43.166Z,99926.50
2023-02-09T14:36:53.987Z,99923.06
2023-02-09T14:42:15.040Z,99924.09
2023-02-09T14:47:37.406Z,99918.94
2023-02-09T14:52:46.705Z,99921.47
2023-02-09T14:57:49.690Z,99933.41
2023-02-09T15:02:53.963Z,99937.13
2023-02-09T15:08:05.824Z,99925.19
2023-02-09T15:13:09.157Z,99914.22
2023-02-09T15:18:19.650Z,99931.09
2023-02-09T15:23:23.794Z,99926.69
2023-02-09T15:28:29.976Z,99926.78
2023-02-09T15:33:32.811Z,99926.13
2023-02-09T15:38:37.391Z,99941.44
2023-02-09T15:43:57.662Z,99943.88
2023-02-09T15:49:00.498Z,99939.19
2023-02-09T15:54:09.068Z,99944.25
2023-02-09T15:59:18.807Z,99945.38
2023-02-09T16:04:21.604Z,99952.09
2023-02-09T16:09:28.572Z,99949.47
2023-02-09T16:14:31.693Z,99954.09
2023-02-09T16:19:34.693Z,99960.66
2023-02-09T16:24:42.487Z,99965.03
2023-02-09T16:29:45.272Z,99970.06
2023-02-09T16:34:48.035Z,99970.63
2023-02-09T16:39:52.276Z,99980.69
2023-02-09T16:44:56.502Z,99992.63
2023-02-09T16:50:01.057Z,99998.41
2023-02-09T16:55:11.297Z,99997.16
2023-02-09T17:00:15.809Z,100009.09
2023-02-09T17:05:21.436Z,100013.84
2023-02-09T17:10:28.802Z,100015.91
2023-02-09T17:15:36.820Z,100030.09
2023-02-09T17:20:44.038Z,100023.34
2023-02-09T17:25:50.761Z,100031.31
2023-02-09T17:30:57.945Z,100042.03
2023-02-09T17:41:32.513Z,100045.13
2023-02-09T17:46:35.675Z,100049.75
2023-02-09T17:51:41.294Z,100053.38
2023-02-09T17:56:46.315Z,100064.97
2023-02-09T18:01:50.686Z,100064.47
2023-02-09T18:06:54.350Z,100087.16
2023-02-09T18:12:02.389Z,100095.22
2023-02-09T18:17:05.206Z,100092.84
2023-02-09T18:22:08.266Z,100106.97
2023-02-09T18:27:16.025Z,100116.69
2023-02-09T18:32:21.024Z,100110.88
2023-02-09T18:37:24.205Z,100121.31
2023-02-09T18:42:28.277Z,100118.75
2023-02-09T18:47:31.478Z,100117.06
2023-02-09T18:52:34.755Z,100121.56
2023-02-09T18:57:39.495Z,100116.50
2023-02-09T19:02:44.324Z,100123.72
2023-02-09T19:07:50.004Z,100128.28
2023-02-09T19:12:55.425Z,100135.34
2023-02-09T19:17:58.214Z,100148.56
2023-02-09T19:23:02.342Z,100154.72
2023-02-09T19:28:06.574Z,100148.69
2023-02-09T19:33:09.356Z,100156.63
2023-02-09T19:38:12.168Z,100155.00
2023-02-09T19:43:16.356Z,100150.72
2023-02-09T19:48:19.422Z,100157.94
2023-02-09T19:53:22.180Z,100155.38
2023-02-09T19:58:26.400Z,100163.31
2023-02-09T20:03:29.960Z,100162.53
2023-02-09T20:08:32.728Z,100170.41
2023-02-09T20:13:38.085Z,100174.00
2023-02-09T20:18:41.088Z,100187.97
2023-02-09T20:23:45.764Z,100191.53
2023-02-09T20:28:50.969Z,100190.69
2023-02-09T20:33:54.672Z,100195.13
2023-02-09T20:38:57.399Z,100206.47
2023-02-09T20:44:18.986Z,100197.84
2023-02-09T20:49:23.338Z,100193.53
2023-02-09T20:54:26.108Z,100188.34
2023-02-09T20:59:30.998Z,100197.22
2023-02-09T21:04:33.709Z,100197.19
2023-02-09T21:09:36.533Z,100195.50
2023-02-09T21:14:43.229Z,100192.00
2023-02-09T21:19:46.151Z,100193.88
2023-02-09T21:24:48.891Z,100184.31
2023-02-09T21:29:53.016Z,100189.56
2023-02-09T21:34:55.730Z,100189.53
2023-02-09T21:40:01.936Z,100183.44
2023-02-09T21:45:08.023Z,100203.44
2023-02-09T21:50:12.786Z,100207.81
2023-02-09T21:55:15.667Z,100211.31
2023-02-09T22:00:20.143Z,100204.34
2023-02-09T22:05:22.950Z,100205.22
2023-02-09T22:10:25.714Z,100204.41
2023-02-09T22:15:29.785Z,100219.19
2023-02-09T22:20:32.537Z,100221.84
2023-02-09T22:25:36.129Z,100221.88
2023-02-09T22:30:40.254Z,100220.16
2023-02-09T22:35:43.053Z,100208.91
2023-02-09T22:40:45.766Z,100209.75
2023-02-09T22:45:55.849Z,100218.44
2023-02-09T22:50:58.617Z,100228.94
2023-02-09T22:56:02.916Z,100222.84
2023-02-09T23:01:08.036Z,100221.13
2023-02-09T23:06:14.220Z,100213.31
2023-02-09T23:11:18.353Z,100210.69
2023-02-09T23:16:24.473Z,100215.06
2023-02-09T23:21:29.809Z,100216.84
2023-02-09T23:26:32.673Z,100224.66
2023-02-09T23:31:37.527Z,100232.47
2023-02-09T23:36:40.231Z,100232.47
2023-02-09T23:41:43.158Z,100241.16
2023-02-09T23:46:47.244Z,100248.09
2023-02-09T23:51:50.098Z,100263.75
2023-02-09T23:56:53.623Z,100264.56
